createdAt,value
2024-02-24T00:00:34.780Z,99287.75
2024-02-24T00:03:01.886Z,99298.25
2024-02-24T00:05:29.045Z,99291.41
2024-02-24T00:07:56.361Z,99291.53
2024-02-24T00:10:23.793Z,99297.66
2024-02-24T00:12:50.850Z,99309.00
2024-02-24T00:15:17.989Z,99309.09
2024-02-24T00:17:45.200Z,99304.78
2024-02-24T00:20:12.756Z,99299.59
2024-02-24T00:22:39.978Z,99297.84
2024-02-24T00:25:07.517Z,99298.66
2024-02-24T00:27:34.760Z,99299.50
2024-02-24T00:30:01.970Z,99302.13
2024-02-24T00:32:29.131Z,99300.41
2024-02-24T00:34:56.274Z,99305.63
2024-02-24T00:37:23.308Z,99310.81
2024-02-24T00:39:50.391Z,99309.03
2024-02-24T00:42:17.473Z,99312.47
2024-02-24T00:44:44.561Z,99302.94
2024-02-24T00:47:11.685Z,99297.78
2024-02-24T00:49:38.748Z,99304.78
2024-02-24T00:52:06.128Z,99306.59
2024-02-24T00:54:33.188Z,99298.88
2024-02-24T00:57:00.194Z,99298.16
2024-02-24T00:59:28.045Z,99300.84
2024-02-24T01:01:55.131Z,99302.63
2024-02-24T01:04:25.756Z,99306.16
2024-02-24T01:06:53.503Z,99306.25
2024-02-24T01:09:22.001Z,99310.66
2024-02-24T01:11:49.193Z,99308.16
2024-02-24T01:14:16.500Z,99304.69
2024-02-24T01:16:45.755Z,99309.88
2024-02-24T01:19:13.146Z,99314.22
2024-02-24T01:21:44.445Z,99308.09
2024-02-24T01:24:15.340Z,99310.75
2024-02-24T01:26:42.556Z,99309.03
2024-02-24T01:29:09.745Z,99313.38
2024-02-24T01:31:36.833Z,99312.47
2024-02-24T01:34:03.998Z,99307.25
2024-02-24T01:36:31.094Z,99305.50
2024-02-24T01:38:58.173Z,99300.25
2024-02-24T01:41:25.978Z,99301.06
2024-02-24T01:43:53.050Z,99310.59
2024-02-24T01:46:20.454Z,99310.53
2024-02-24T01:48:47.758Z,99306.16
2024-02-24T01:51:16.344Z,99308.75
2024-02-24T01:53:44.326Z,99308.69
2024-02-24T01:56:11.996Z,99311.25
2024-02-24T01:58:40.130Z,99314.69
2024-02-24T02:01:08.406Z,99313.78
2024-02-24T02:03:37.483Z,99310.25
2024-02-24T02:06:05.954Z,99311.97
2024-02-24T02:08:33.269Z,99309.41
2024-02-24T02:11:00.492Z,99315.47
2024-02-24T02:13:27.679Z,99316.22
2024-02-24T02:15:57.990Z,99317.94
2024-02-24T02:18:25.259Z,99310.13
2024-02-24T02:20:53.821Z,99311.88
2024-02-24T02:23:21.466Z,99309.22
2024-02-24T02:25:48.668Z,99310.88
2024-02-24T02:28:15.813Z,99310.00
2024-02-24T02:30:42.939Z,99322.91
2024-02-24T02:33:10.699Z,99322.03
2024-02-24T02:35:38.422Z,99327.16
2024-02-24T02:38:09.316Z,99331.44
2024-02-24T02:40:37.142Z,99325.25
2024-02-24T02:43:04.620Z,99334.78
2024-02-24T02:45:31.776Z,99339.91
2024-02-24T02:47:59.022Z,99338.13
2024-02-24T02:50:26.208Z,99334.63
2024-02-24T02:52:53.253Z,99348.44
2024-02-24T02:55:22.014Z,99348.34
2024-02-24T02:57:50.247Z,99355.16
2024-02-24T03:00:17.927Z,99346.28
2024-02-24T03:02:45.084Z,99348.72
2024-02-24T03:05:12.367Z,99350.25
2024-02-24T03:07:39.572Z,99343.16
2024-02-24T03:10:08.372Z,99343.84
2024-02-24T03:12:35.620Z,99345.38
2024-02-24T03:15:03.750Z,99347.75
2024-02-24T03:17:30.929Z,99342.34
2024-02-24T03:19:58.176Z,99337.75
2024-02-24T03:22:28.365Z,99341.09
2024-02-24T03:24:55.575Z,99337.38
2024-02-24T03:27:22.656Z,99342.41
2024-02-24T03:29:49.810Z,99333.59
2024-02-24T03:32:17.110Z,99337.81
2024-02-24T03:34:44.247Z,99338.53
2024-02-24T03:37:11.388Z,99338.41
2024-02-24T03:39:40.895Z,99335.56
2024-02-24T03:42:07.987Z,99331.16
2024-02-24T03:44:35.058Z,99334.59
2024-02-24T03:47:02.559Z,99331.16
2024-02-24T03:49:29.659Z,99335.56
2024-02-24T03:51:56.896Z,99345.25
2024-02-24T03:54:25.805Z,99341.09
2024-02-24T03:56:53.257Z,99341.34
2024-02-24T03:59:20.471Z,99345.91
2024-02-24T04:01:47.984Z,99350.50
2024-02-24T04:04:15.077Z,99341.16
2024-02-24T04:06:45.699Z,99347.41
2024-02-24T04:09:12.956Z,99350.97
2024-02-24T04:11:40.540Z,99348.31
2024-02-24T04:14:07.745Z,99354.31
2024-02-24T04:16:34.800Z,99351.66
2024-02-24T04:19:02.517Z,99355.97
2024-02-24T04:21:29.679Z,99356.88
2024-02-24T04:23:57.286Z,99359.53
2024-02-24T04:26:24.465Z,99358.69
2024-02-24T04:28:51.585Z,99361.50
2024-02-24T04:31:18.896Z,99370.31
2024-02-24T04:33:46.089Z,99367.03
2024-02-24T04:36:13.268Z,99368.78
2024-02-24T04:38:40.504Z,99375.75
2024-02-24T04:41:07.721Z,99373.88
2024-02-24T04:43:37.111Z,99385.06
2024-02-24T04:46:05.191Z,99385.75
2024-02-24T04:48:32.439Z,99389.03
2024-02-24T04:51:02.858Z,99388.91
2024-02-24T04:53:30.825Z,99395.66
2024-02-24T04:55:57.945Z,99400.81
2024-02-24T04:58:26.162Z,99396.31
2024-02-24T05:00:53.337Z,99400.59
2024-02-24T05:03:20.644Z,99388.28
2024-02-24T05:05:47.927Z,99393.44
2024-02-24T05:08:15.078Z,99395.22
2024-02-24T05:10:42.279Z,99395.25
2024-02-24T05:13:09.343Z,99396.25
2024-02-24T05:15:36.495Z,99407.66
2024-02-24T05:18:04.104Z,99410.28
2024-02-24T05:20:32.291Z,99405.06
2024-02-24T05:22:59.519Z,99405.19
2024-02-24T05:25:26.572Z,99404.38
2024-02-24T05:27:54.475Z,99402.84
2024-02-24T05:30:21.521Z,99410.81
2024-02-24T05:32:48.755Z,99403.13
2024-02-24T05:35:16.153Z,99414.47
2024-02-24T05:37:45.397Z,99421.41
2024-02-24T05:40:15.992Z,99423.94
2024-02-24T05:42:43.614Z,99425.66
2024-02-24T05:45:13.061Z,99421.31
2024-02-24T05:47:40.224Z,99419.53
2024-02-24T05:50:08.082Z,99430.81
2024-02-24T05:52:35.254Z,99442.09
2024-02-24T05:55:08.489Z,99445.53
2024-02-24T05:57:35.425Z,99449.00
2024-02-24T06:00:05.879Z,99455.94
2024-02-24T06:02:39.569Z,99459.34
2024-02-24T06:05:07.188Z,99461.03
2024-02-24T06:07:34.708Z,99455.81
2024-02-24T06:10:01.897Z,99455.81
2024-02-24T06:12:28.903Z,99460.97
2024-02-24T06:14:56.002Z,99461.81
2024-02-24T06:17:23.223Z,99468.75
2024-02-24T06:19:50.308Z,99474.84
2024-02-24T06:22:17.531Z,99482.56
2024-02-24T06:24:44.679Z,99474.72
2024-02-24T06:27:11.753Z,99487.69
2024-02-24T06:29:38.865Z,99478.09
2024-02-24T06:32:06.865Z,99485.03
2024-02-24T06:34:34.000Z,99484.13
2024-02-24T06:37:01.137Z,99484.09
2024-02-24T06:39:28.198Z,99486.75
2024-02-24T06:41:55.658Z,99484.97
2024-02-24T06:44:22.776Z,99484.91
2024-02-24T06:46:51.783Z,99490.13
2024-02-24T06:49:21.245Z,99491.88
2024-02-24T06:51:48.406Z,99497.91
2024-02-24T06:54:15.411Z,99503.09
2024-02-24T06:56:43.521Z,99501.34
2024-02-24T06:59:10.709Z,99496.03
2024-02-24T07:01:37.786Z,99503.75
2024-02-24T07:04:05.149Z,99501.94
2024-02-24T07:06:32.270Z,99507.06
2024-02-24T07:08:59.480Z,99501.69
2024-02-24T07:11:26.764Z,99510.31
2024-02-24T07:13:53.973Z,99519.84
2024-02-24T07:16:21.009Z,99523.22
2024-02-24T07:18:48.104Z,99529.13
2024-02-24T07:21:15.264Z,99523.00
2024-02-24T07:23:42.408Z,99535.88
2024-02-24T07:26:09.715Z,99539.16
2024-02-24T07:28:36.759Z,99539.84
2024-02-24T07:31:04.284Z,99544.81
2024-02-24T07:33:31.474Z,99546.41
2024-02-24T07:35:58.710Z,99544.47
2024-02-24T07:38:25.889Z,99549.47
2024-02-24T07:40:52.975Z,99549.25
2024-02-24T07:43:20.072Z,99554.34
2024-02-24T07:45:47.201Z,99549.91
2024-02-24T07:48:14.558Z,99555.84
2024-02-24T07:50:41.876Z,99553.06
2024-02-24T07:53:09.415Z,99553.72
2024-02-24T07:55:36.564Z,99556.94
2024-02-24T07:58:04.713Z,99558.34
2024-02-24T08:00:31.843Z,99558.84
2024-02-24T08:02:59.080Z,99559.41
2024-02-24T08:05:26.182Z,99563.47
2024-02-24T08:07:53.273Z,99566.66
2024-02-24T08:10:20.416Z,99568.09
2024-02-24T08:12:50.062Z,99572.84
2024-02-24T08:15:17.202Z,99567.94
2024-02-24T08:17:44.373Z,99571.59
2024-02-24T08:20:12.096Z,99573.44
2024-02-24T08:22:40.310Z,99583.06
2024-02-24T08:25:08.278Z,99587.41
2024-02-24T08:27:35.377Z,99592.66
2024-02-24T08:30:02.518Z,99597.22
2024-02-24T08:32:31.134Z,99593.50
2024-02-24T08:34:58.290Z,99603.22
2024-02-24T08:37:25.344Z,99603.34
2024-02-24T08:39:52.373Z,99604.50
2024-02-24T08:42:19.451Z,99619.78
2024-02-24T08:44:46.619Z,99614.88
2024-02-24T08:47:13.830Z,99609.94
2024-02-24T08:49:40.938Z,99618.09
2024-02-24T08:52:09.420Z,99620.06
2024-02-24T08:54:37.580Z,99621.88
2024-02-24T08:57:07.093Z,99623.66
2024-02-24T08:59:34.233Z,99631.53
2024-02-24T09:02:01.354Z,99634.06
2024-02-24T09:04:28.484Z,99637.69
2024-02-24T09:06:55.608Z,99636.91
2024-02-24T09:09:22.710Z,99642.31
2024-02-24T09:11:50.839Z,99651.19
2024-02-24T09:14:18.185Z,99648.69
2024-02-24T09:16:45.209Z,99643.72
2024-02-24T09:19:12.376Z,99652.78
2024-02-24T09:21:39.723Z,99670.63
2024-02-24T09:24:06.887Z,99682.38
2024-02-24T09:26:34.077Z,99681.66
2024-02-24T09:29:09.050Z,99694.00
2024-02-24T09:32:19.172Z,99695.97
2024-02-24T09:34:46.647Z,99698.28
2024-02-24T09:37:13.725Z,99704.72
2024-02-24T09:39:42.364Z,99709.38
2024-02-24T09:42:10.773Z,99710.41
2024-02-24T09:44:39.876Z,99716.75
2024-02-24T09:47:08.442Z,99718.59
2024-02-24T09:49:35.547Z,99730.00
2024-02-24T09:52:02.813Z,99722.25
2024-02-24T09:54:30.324Z,99721.34
2024-02-24T09:56:58.823Z,99729.19
2024-02-24T09:59:26.993Z,99728.28
2024-02-24T10:01:54.091Z,99734.13
2024-02-24T10:04:22.808Z,99731.84
2024-02-24T10:06:49.939Z,99743.38
2024-02-24T10:09:17.089Z,99736.25
2024-02-24T10:11:44.274Z,99732.53
2024-02-24T10:14:11.771Z,99743.03
2024-02-24T10:16:39.542Z,99742.41
2024-02-24T10:19:07.707Z,99748.97
2024-02-24T10:21:35.620Z,99748.41
2024-02-24T10:24:06.240Z,99751.28
2024-02-24T10:26:33.472Z,99747.91
2024-02-24T10:29:07.926Z,99753.13
2024-02-24T10:31:36.237Z,99760.75
2024-02-24T10:34:05.313Z,99760.88
2024-02-24T10:36:34.135Z,99759.56
2024-02-24T10:39:02.730Z,99764.34
2024-02-24T10:41:31.422Z,99770.69
2024-02-24T10:44:10.454Z,99755.59
2024-02-24T10:46:45.740Z,99766.09
2024-02-24T10:49:13.104Z,99767.84
2024-02-24T10:51:47.046Z,99767.81
2024-02-24T10:54:22.716Z,99775.19
2024-02-24T10:56:59.198Z,99772.09
2024-02-24T10:59:33.822Z,99779.75
2024-02-24T11:02:03.840Z,99772.41
2024-02-24T11:04:36.719Z,99767.25
2024-02-24T11:07:19.783Z,99769.56
2024-02-24T11:09:55.176Z,99770.06
2024-02-24T11:12:25.972Z,99781.19
2024-02-24T11:14:56.153Z,99780.13
2024-02-24T11:18:00.045Z,99784.91
2024-02-24T11:20:34.548Z,99795.06
2024-02-24T11:23:27.901Z,99789.63
2024-02-24T11:26:22.352Z,99794.63
2024-02-24T11:29:03.477Z,99800.44
2024-02-24T11:31:37.828Z,99813.84
2024-02-24T11:34:11.782Z,99804.59
2024-02-24T11:36:42.134Z,99807.81
2024-02-24T11:39:15.126Z,99802.03
2024-02-24T11:41:42.887Z,99805.53
2024-02-24T11:44:11.590Z,99807.53
2024-02-24T11:46:38.915Z,99808.06
2024-02-24T11:49:06.201Z,99806.47
2024-02-24T11:51:36.175Z,99805.78
2024-02-24T11:54:05.592Z,99804.59
2024-02-24T11:56:33.712Z,99804.78
2024-02-24T11:59:02.011Z,99806.47
2024-02-24T12:01:30.359Z,99807.94
2024-02-24T12:04:01.056Z,99806.25
2024-02-24T12:06:32.154Z,99808.13
2024-02-24T12:09:01.152Z,99812.53
2024-02-24T12:11:29.031Z,99815.44
2024-02-24T12:13:56.280Z,99821.28
2024-02-24T12:16:25.194Z,99829.75
2024-02-24T12:18:52.558Z,99842.19
2024-02-24T12:21:19.915Z,99831.97
2024-02-24T12:23:47.160Z,99835.50
2024-02-24T12:26:16.822Z,99834.31
2024-02-24T12:28:47.584Z,99837.09
2024-02-24T12:31:15.939Z,99831.72
2024-02-24T12:33:46.395Z,99833.28
2024-02-24T12:36:15.700Z,99835.00
2024-02-24T12:38:44.378Z,99830.50
2024-02-24T12:41:13.957Z,99832.09
2024-02-24T12:43:42.682Z,99831.84
2024-02-24T12:46:10.824Z,99833.19
2024-02-24T12:48:41.353Z,99829.44
2024-02-24T12:51:10.947Z,99832.50
2024-02-24T12:53:38.166Z,99839.94
2024-02-24T12:56:05.408Z,99837.97
2024-02-24T12:58:35.146Z,99836.03
2024-02-24T13:01:02.572Z,99826.41
2024-02-24T13:03:29.976Z,99836.16
2024-02-24T13:05:57.162Z,99841.66
2024-02-24T13:08:24.392Z,99842.78
2024-02-24T13:10:51.837Z,99837.66
2024-02-24T13:13:18.975Z,99832.50
2024-02-24T13:15:47.576Z,99843.03
2024-02-24T13:18:14.924Z,99843.13
2024-02-24T13:20:42.196Z,99846.97
2024-02-24T13:23:09.431Z,99849.00
2024-02-24T13:25:36.782Z,99851.00
2024-02-24T13:28:05.056Z,99867.78
2024-02-24T13:30:32.160Z,99865.31
2024-02-24T13:32:59.402Z,99869.00
2024-02-24T13:35:26.695Z,99861.16
2024-02-24T13:37:53.896Z,99864.44
2024-02-24T13:40:22.646Z,99866.75
2024-02-24T13:42:49.989Z,99862.16
2024-02-24T13:45:17.854Z,99857.53
2024-02-24T13:47:45.178Z,99865.03
2024-02-24T13:50:12.408Z,99862.06
2024-02-24T13:52:39.632Z,99861.00
2024-02-24T13:55:11.890Z,99860.88
2024-02-24T13:57:38.980Z,99872.97
2024-02-24T14:00:11.740Z,99864.06
2024-02-24T14:02:39.622Z,99871.84
2024-02-24T14:05:07.115Z,99876.25
2024-02-24T14:07:34.243Z,99878.91
2024-02-24T14:10:02.412Z,99881.50
2024-02-24T14:12:30.115Z,99876.03
2024-02-24T14:14:57.384Z,99876.69
2024-02-24T14:17:28.950Z,99875.63
2024-02-24T14:19:57.856Z,99882.38
2024-02-24T14:22:25.036Z,99891.69
2024-02-24T14:24:52.134Z,99886.22
2024-02-24T14:27:19.679Z,99886.94
2024-02-24T14:29:47.473Z,99894.63
2024-02-24T14:32:16.575Z,99894.63
2024-02-24T14:34:44.601Z,99893.75
2024-02-24T14:37:11.821Z,99886.94
2024-02-24T14:39:39.682Z,99889.75
2024-02-24T14:42:06.951Z,99896.94
2024-02-24T14:44:34.187Z,99904.16
2024-02-24T14:47:06.364Z,99911.31
2024-02-24T14:49:34.254Z,99909.75
2024-02-24T14:52:02.389Z,99904.75
2024-02-24T14:54:39.650Z,99908.50
2024-02-24T14:57:13.150Z,99914.59
2024-02-24T14:59:43.634Z,99912.63
2024-02-24T15:02:17.134Z,99910.56
2024-02-24T15:04:49.641Z,99909.59
2024-02-24T15:07:16.746Z,99909.66
2024-02-24T15:09:50.579Z,99915.00
2024-02-24T15:12:20.286Z,99922.78
2024-02-24T15:14:47.378Z,99920.09
2024-02-24T15:17:16.810Z,99918.22
2024-02-24T15:19:46.441Z,99919.94
2024-02-24T15:22:13.754Z,99920.03
2024-02-24T15:24:45.055Z,99926.25
2024-02-24T15:27:13.470Z,99932.56
2024-02-24T15:29:43.621Z,99933.69
2024-02-24T15:32:11.267Z,99929.50
2024-02-24T15:34:39.137Z,99940.31
2024-02-24T15:37:06.792Z,99942.31
2024-02-24T15:39:37.273Z,99935.53
2024-02-24T15:42:04.491Z,99944.38
2024-02-24T15:44:31.642Z,99940.91
2024-02-24T15:46:58.838Z,99945.09
2024-02-24T15:49:26.466Z,99950.34
2024-02-24T15:51:55.445Z,99952.13
2024-02-24T15:54:23.676Z,99950.50
2024-02-24T15:56:53.519Z,99953.28
2024-02-24T15:59:23.944Z,99955.06
2024-02-24T16:01:51.017Z,99959.44
2024-02-24T16:04:18.128Z,99963.84
2024-02-24T16:06:45.233Z,99959.56
2024-02-24T16:09:14.165Z,99954.28
2024-02-24T16:11:41.372Z,99969.09
2024-02-24T16:14:08.569Z,99963.97
2024-02-24T16:16:35.673Z,99967.72
2024-02-24T16:19:02.884Z,99963.72
2024-02-24T16:21:30.018Z,99965.00
2024-02-24T16:23:57.220Z,99974.22
2024-02-24T16:26:24.302Z,99978.13
2024-02-24T16:28:51.442Z,99982.06
2024-02-24T16:31:18.564Z,99984.22
2024-02-24T16:33:46.309Z,99986.25
2024-02-24T16:36:13.683Z,100001.34
2024-02-24T16:38:41.207Z,100000.78
2024-02-24T16:41:08.352Z,100003.69
2024-02-24T16:43:36.055Z,99997.84
2024-02-24T16:46:03.727Z,99995.53
2024-02-24T16:48:30.956Z,99991.44
2024-02-24T16:50:58.189Z,99996.88
2024-02-24T16:53:25.334Z,100002.28
2024-02-24T16:55:52.461Z,100003.38
2024-02-24T16:58:19.550Z,100008.72
2024-02-24T17:00:46.906Z,100000.19
2024-02-24T17:03:14.098Z,100003.84
2024-02-24T17:05:41.531Z,100011.03
2024-02-24T17:08:08.638Z,100007.78
2024-02-24T17:10:40.359Z,100011.47
2024-02-24T17:13:09.799Z,100009.97
2024-02-24T17:15:38.784Z,100016.22
2024-02-24T17:18:07.249Z,100004.22
2024-02-24T17:20:35.872Z,100020.00
2024-02-24T17:23:10.291Z,100020.97
2024-02-24T17:25:37.577Z,100018.44
2024-02-24T17:28:07.527Z,100017.66
2024-02-24T17:30:36.962Z,100018.56
2024-02-24T17:33:05.858Z,100020.34
2024-02-24T17:35:33.105Z,100017.72
2024-02-24T17:38:03.264Z,100026.41
2024-02-24T17:40:30.385Z,100026.38
2024-02-24T17:42:57.873Z,100025.41
2024-02-24T17:45:25.264Z,100033.13
2024-02-24T17:47:52.782Z,100036.47
2024-02-24T17:50:20.053Z,100039.84
2024-02-24T17:52:47.167Z,100030.09
2024-02-24T17:55:14.334Z,100027.44
2024-02-24T17:57:42.588Z,100026.56
2024-02-24T18:00:10.429Z,100033.63
2024-02-24T18:02:38.444Z,100036.34
2024-02-24T18:05:06.134Z,100029.47
2024-02-24T18:07:33.197Z,100035.63
2024-02-24T18:10:00.360Z,100026.94
2024-02-24T18:12:28.553Z,100033.06
2024-02-24T18:14:55.707Z,100033.97
2024-02-24T18:17:22.986Z,100034.03
2024-02-24T18:19:50.154Z,100037.59
2024-02-24T18:22:17.256Z,100039.38
2024-02-24T18:24:45.520Z,100042.03
2024-02-24T18:27:13.242Z,100046.44
2024-02-24T18:29:40.402Z,100043.81
2024-02-24T18:32:08.051Z,100045.59
2024-02-24T18:34:35.344Z,100039.53
2024-02-24T18:37:02.824Z,100041.28
2024-02-24T18:39:30.273Z,100039.63
2024-02-24T18:41:59.005Z,100043.13
2024-02-24T18:44:26.213Z,100036.22
2024-02-24T18:46:53.872Z,100036.28
2024-02-24T18:49:22.234Z,100037.19
2024-02-24T18:51:49.835Z,100038.91
2024-02-24T18:54:16.883Z,100051.94
2024-02-24T18:56:44.047Z,100055.41
2024-02-24T18:59:11.124Z,100051.03
2024-02-24T19:01:38.305Z,100056.25
2024-02-24T19:04:05.703Z,100049.31
2024-02-24T19:06:32.901Z,100055.44
2024-02-24T19:09:00.154Z,100049.34
2024-02-24T19:11:29.318Z,100048.50
2024-02-24T19:13:56.501Z,100056.28
2024-02-24T19:16:23.605Z,100053.66
2024-02-24T19:18:51.200Z,100050.16
2024-02-24T19:21:18.552Z,100044.88
2024-02-24T19:23:45.720Z,100053.50
2024-02-24T19:26:14.421Z,100053.41
2024-02-24T19:28:41.709Z,100050.72
2024-02-24T19:31:08.797Z,100052.41
2024-02-24T19:33:36.092Z,100059.31
2024-02-24T19:36:04.020Z,100054.94
2024-02-24T19:38:31.205Z,100052.28
2024-02-24T19:40:58.394Z,100054.88
2024-02-24T19:43:25.550Z,100055.69
2024-02-24T19:45:54.284Z,100053.00
2024-02-24T19:48:21.504Z,100056.44
2024-02-24T19:50:49.568Z,100056.34
2024-02-24T19:53:16.711Z,100047.44
2024-02-24T19:55:43.825Z,100051.69
2024-02-24T19:58:20.598Z,100052.50
2024-02-24T20:00:51.798Z,100051.59
2024-02-24T20:03:18.982Z,100046.34
2024-02-24T20:05:46.122Z,100052.41
2024-02-24T20:08:13.163Z,100048.88
2024-02-24T20:10:40.183Z,100041.88
2024-02-24T20:13:07.183Z,100035.75
2024-02-24T20:15:35.026Z,100046.13
2024-02-24T20:18:02.341Z,100041.78
2024-02-24T20:20:29.536Z,100039.97
2024-02-24T20:22:57.360Z,100044.34
2024-02-24T20:25:24.922Z,100044.28
2024-02-24T20:27:52.116Z,100045.94
2024-02-24T20:30:22.319Z,100038.84
2024-02-24T20:32:55.635Z,100045.75
2024-02-24T20:35:24.196Z,100048.25
2024-02-24T20:37:51.504Z,100048.16
2024-02-24T20:40:18.515Z,100047.28
2024-02-24T20:42:45.876Z,100054.13
2024-02-24T20:45:13.056Z,100059.28
2024-02-24T20:47:40.176Z,100052.25
2024-02-24T20:50:08.273Z,100051.31
2024-02-24T20:52:37.176Z,100053.88
2024-02-24T20:55:05.439Z,100045.16
2024-02-24T20:57:32.674Z,100049.44
2024-02-24T20:59:59.869Z,100051.16
2024-02-24T21:02:26.975Z,100052.03
2024-02-24T21:04:54.009Z,100048.56
2024-02-24T21:07:21.126Z,100045.09
2024-02-24T21:09:48.936Z,100046.81
2024-02-24T21:12:16.013Z,100040.69
2024-02-24T21:14:43.150Z,100038.97
2024-02-24T21:17:10.227Z,100043.31
2024-02-24T21:19:37.720Z,100034.59
2024-02-24T21:22:05.160Z,100038.94
2024-02-24T21:24:32.505Z,100033.75
2024-02-24T21:27:00.558Z,100025.06
2024-02-24T21:29:27.942Z,100024.25
2024-02-24T21:31:55.403Z,100029.53
2024-02-24T21:34:22.813Z,100026.94
2024-02-24T21:36:50.353Z,100020.84
2024-02-24T21:39:17.432Z,100022.59
2024-02-24T21:41:44.580Z,100013.03
2024-02-24T21:44:11.638Z,100013.03
2024-02-24T21:46:38.678Z,100014.75
2024-02-24T21:49:05.895Z,100015.66
2024-02-24T21:51:33.060Z,100004.38
2024-02-24T21:54:02.727Z,100011.38
2024-02-24T21:56:31.792Z,99999.25
2024-02-24T21:58:58.806Z,100002.84
2024-02-24T22:01:25.845Z,100002.00
2024-02-24T22:03:53.513Z,99997.78
2024-02-24T22:06:20.920Z,99990.03
2024-02-24T22:08:48.152Z,100001.44
2024-02-24T22:11:15.238Z,100004.19
2024-02-24T22:13:42.608Z,99998.22
2024-02-24T22:16:12.976Z,99993.13
2024-02-24T22:18:40.567Z,99990.63
2024-02-24T22:21:09.501Z,99994.16
2024-02-24T22:23:36.972Z,99986.41
2024-02-24T22:26:04.418Z,99989.91
2024-02-24T22:28:31.569Z,99983.00
2024-02-24T22:30:58.697Z,99979.56
2024-02-24T22:33:26.133Z,99977.03
2024-02-24T22:35:54.250Z,99974.44
2024-02-24T22:38:22.198Z,99973.59
2024-02-24T22:40:49.342Z,99970.16
2024-02-24T22:43:16.972Z,99972.72
2024-02-24T22:45:44.299Z,99966.69
2024-02-24T22:48:11.709Z,99978.81
2024-02-24T22:50:38.998Z,99972.66
2024-02-24T22:53:06.163Z,99975.28
2024-02-24T22:55:35.325Z,99972.63
2024-02-24T22:58:02.643Z,99976.97
2024-02-24T23:00:29.839Z,99974.34
2024-02-24T23:02:57.147Z,99969.13
2024-02-24T23:05:24.383Z,99969.13
2024-02-24T23:07:51.509Z,99960.44
2024-02-24T23:10:18.673Z,99957.84
2024-02-24T23:12:45.984Z,99970.88
2024-02-24T23:15:13.398Z,99975.22
2024-02-24T23:17:41.133Z,99966.59
2024-02-24T23:20:09.091Z,99974.38
2024-02-24T23:22:36.544Z,99965.66
2024-02-24T23:25:03.987Z,99965.59
2024-02-24T23:27:31.678Z,99975.09
2024-02-24T23:29:58.968Z,99961.06
2024-02-24T23:32:26.437Z,99967.94
2024-02-24T23:34:53.610Z,99967.84
2024-02-24T23:37:20.876Z,99963.41
2024-02-24T23:39:48.072Z,99952.91
2024-02-24T23:42:15.336Z,99955.44
2024-02-24T23:44:42.444Z,99948.47
2024-02-24T23:47:09.505Z,99949.38
2024-02-24T23:49:36.670Z,99941.53
2024-02-24T23:52:04.063Z,99946.75
2024-02-24T23:54:31.113Z,99940.75
2024-02-24T23:56:58.223Z,99932.91
2024-02-24T23:59:25.295Z,99937.31
